sensor_id;sensor_type;location;lat;lon;timestamp;pressure;altitude;pressure_sealevel;temperature;humidity
21960;BME280;11144;43.030;25.108;2023-04-27T00:00:51;98892.72;;;10.57;100.00
21960;BME280;11144;43.030;25.108;2023-04-27T00:02:24;98889.38;;;10.52;100.00
21960;BME280;11144;43.030;25.108;2023-04-27T00:03:57;98894.00;;;10.47;100.00
21960;BME280;11144;43.030;25.108;2023-04-27T00:05:33;98894.78;;;10.49;100.00
21960;BME280;11144;43.030;25.108;2023-04-27T00:07:07;98899.88;;;10.54;100.00
21960;BME280;11144;43.030;25.108;2023-04-27T00:08:41;98902.66;;;10.51;100.00
21960;BME280;11144;43.030;25.108;2023-04-27T00:10:15;98903.53;;;10.51;100.00
21960;BME280;11144;43.030;25.108;2023-04-27T00:11:48;98905.22;;;10.52;100.00
21960;BME280;11144;43.030;25.108;2023-04-27T00:13:21;98900.88;;;10.51;100.00
21960;BME280;11144;43.030;25.108;2023-04-27T00:14:55;98909.69;;;10.52;100.00
21960;BME280;11144;43.030;25.108;2023-04-27T00:16:27;98908.69;;;10.54;100.00
21960;BME280;11144;43.030;25.108;2023-04-27T00:18:00;98910.41;;;10.55;100.00
21960;BME280;11144;43.030;25.108;2023-04-27T00:19:34;98920.97;;;10.55;100.00
21960;BME280;11144;43.030;25.108;2023-04-27T00:21:07;98908.56;;;10.57;100.00
21960;BME280;11144;43.030;25.108;2023-04-27T00:22:39;98912.03;;;10.58;100.00
21960;BME280;11144;43.030;25.108;2023-04-27T00:24:14;98909.47;;;10.56;100.00
21960;BME280;11144;43.030;25.108;2023-04-27T00:25:47;98914.50;;;10.62;100.00
21960;BME280;11144;43.030;25.108;2023-04-27T00:27:21;98912.91;;;10.58;100.00
21960;BME280;11144;43.030;25.108;2023-04-27T00:28:54;98909.41;;;10.58;100.00
21960;BME280;11144;43.030;25.108;2023-04-27T00:30:28;98915.56;;;10.58;100.00
21960;BME280;11144;43.030;25.108;2023-04-27T00:32:01;98915.56;;;10.58;100.00
21960;BME280;11144;43.030;25.108;2023-04-27T00:33:34;98912.84;;;10.60;100.00
21960;BME280;11144;43.030;25.108;2023-04-27T00:35:08;98926.19;;;10.57;100.00
21960;BME280;11144;43.030;25.108;2023-04-27T00:36:42;98919.13;;;10.57;100.00
21960;BME280;11144;43.030;25.108;2023-04-27T00:38:16;98917.41;;;10.56;100.00
21960;BME280;11144;43.030;25.108;2023-04-27T00:39:51;98918.31;;;10.55;100.00
21960;BME280;11144;43.030;25.108;2023-04-27T00:41:24;98919.97;;;10.58;100.00
21960;BME280;11144;43.030;25.108;2023-04-27T00:42:57;98926.13;;;10.58;100.00
21960;BME280;11144;43.030;25.108;2023-04-27T00:44:31;98923.63;;;10.55;100.00
21960;BME280;11144;43.030;25.108;2023-04-27T00:46:05;98917.53;;;10.53;100.00
21960;BME280;11144;43.030;25.108;2023-04-27T00:47:39;98917.53;;;10.53;100.00
21960;BME280;11144;43.030;25.108;2023-04-27T00:49:13;98924.56;;;10.54;100.00
21960;BME280;11144;43.030;25.108;2023-04-27T00:50:46;98922.81;;;10.53;100.00
21960;BME280;11144;43.030;25.108;2023-04-27T00:52:19;98925.44;;;10.53;100.00
21960;BME280;11144;43.030;25.108;2023-04-27T00:53:52;98922.81;;;10.53;100.00
21960;BME280;11144;43.030;25.108;2023-04-27T00:55:27;98928.97;;;10.54;100.00
21960;BME280;11144;43.030;25.108;2023-04-27T00:57:02;98932.41;;;10.56;100.00
21960;BME280;11144;43.030;25.108;2023-04-27T00:58:35;98934.13;;;10.57;100.00
21960;BME280;11144;43.030;25.108;2023-04-27T01:00:09;98935.00;;;10.57;100.00
21960;BME280;11144;43.030;25.108;2023-04-27T01:01:44;98931.53;;;10.55;100.00
21960;BME280;11144;43.030;25.108;2023-04-27T01:03:18;98936.84;;;10.55;100.00
21960;BME280;11144;43.030;25.108;2023-04-27T01:04:51;98933.38;;;10.53;100.00
21960;BME280;11144;43.030;25.108;2023-04-27T01:06:25;98932.66;;;10.50;100.00
21960;BME280;11144;43.030;25.108;2023-04-27T01:07:58;98938.94;;;10.47;100.00
21960;BME280;11144;43.030;25.108;2023-04-27T01:09:32;98944.28;;;10.46;100.00
21960;BME280;11144;43.030;25.108;2023-04-27T01:11:07;98940.66;;;10.48;100.00
21960;BME280;11144;43.030;25.108;2023-04-27T01:12:43;98937.22;;;10.46;100.00
21960;BME280;11144;43.030;25.108;2023-04-27T01:14:16;98941.59;;;10.47;100.00
21960;BME280;11144;43.030;25.108;2023-04-27T01:15:50;98940.78;;;10.45;100.00
21960;BME280;11144;43.030;25.108;2023-04-27T01:17:23;98940.72;;;10.47;100.00
21960;BME280;11144;43.030;25.108;2023-04-27T01:18:56;98948.47;;;10.51;100.00
21960;BME280;11144;43.030;25.108;2023-04-27T01:20:29;98943.94;;;10.53;100.00
21960;BME280;11144;43.030;25.108;2023-04-27T01:22:03;98948.13;;;10.59;100.00
21960;BME280;11144;43.030;25.108;2023-04-27T01:23:37;98947.28;;;10.58;100.00
21960;BME280;11144;43.030;25.108;2023-04-27T01:25:10;98951.63;;;10.59;100.00
21960;BME280;11144;43.030;25.108;2023-04-27T01:26:43;98950.00;;;10.57;100.00
21960;BME280;11144;43.030;25.108;2023-04-27T01:28:17;98950.06;;;10.55;100.00
21960;BME280;11144;43.030;25.108;2023-04-27T01:29:49;98950.97;;;10.54;100.00
21960;BME280;11144;43.030;25.108;2023-04-27T01:31:22;98950.66;;;10.62;100.00
21960;BME280;11144;43.030;25.108;2023-04-27T01:32:57;98956.75;;;10.64;100.00
21960;BME280;11144;43.030;25.108;2023-04-27T01:34:31;98946.09;;;10.65;100.00
21960;BME280;11144;43.030;25.108;2023-04-27T01:36:05;98949.66;;;10.64;100.00
21960;BME280;11144;43.030;25.108;2023-04-27T01:37:38;98949.59;;;10.66;100.00
21960;BME280;11144;43.030;25.108;2023-04-27T01:39:12;98948.75;;;10.65;100.00
21960;BME280;11144;43.030;25.108;2023-04-27T01:40:46;98944.31;;;10.66;100.00
21960;BME280;11144;43.030;25.108;2023-04-27T01:42:19;98947.75;;;10.68;100.00
21960;BME280;11144;43.030;25.108;2023-04-27T01:43:52;98944.19;;;10.69;100.00
21960;BME280;11144;43.030;25.108;2023-04-27T01:45:26;98951.19;;;10.70;100.00
21960;BME280;11144;43.030;25.108;2023-04-27T01:46:59;98952.97;;;10.69;100.00
21960;BME280;11144;43.030;25.108;2023-04-27T01:48:33;98952.91;;;10.71;100.00
21960;BME280;11144;43.030;25.108;2023-04-27T01:50:06;98958.28;;;10.69;100.00
21960;BME280;11144;43.030;25.108;2023-04-27T01:51:39;98962.75;;;10.67;100.00
21960;BME280;11144;43.030;25.108;2023-04-27T01:53:12;98962.88;;;10.64;100.00
21960;BME280;11144;43.030;25.108;2023-04-27T01:54:47;98967.38;;;10.62;100.00
21960;BME280;11144;43.030;25.108;2023-04-27T01:56:20;98961.28;;;10.60;100.00
21960;BME280;11144;43.030;25.108;2023-04-27T01:57:53;98964.72;;;10.62;100.00
21960;BME280;11144;43.030;25.108;2023-04-27T01:59:27;98968.25;;;10.63;100.00
21960;BME280;11144;43.030;25.108;2023-04-27T02:01:00;98970.03;;;10.62;100.00
21960;BME280;11144;43.030;25.108;2023-04-27T02:02:34;98975.31;;;10.62;100.00
21960;BME280;11144;43.030;25.108;2023-04-27T02:04:11;98972.66;;;10.62;100.00
21960;BME280;11144;43.030;25.108;2023-04-27T02:05:44;98978.72;;;10.64;100.00
21960;BME280;11144;43.030;25.108;2023-04-27T02:07:18;98973.31;;;10.67;100.00
21960;BME280;11144;43.030;25.108;2023-04-27T02:08:52;98975.97;;;10.67;100.00
21960;BME280;11144;43.030;25.108;2023-04-27T02:10:27;98975.91;;;10.69;100.00
21960;BME280;11144;43.030;25.108;2023-04-27T02:12:00;98975.06;;;10.68;100.00
21960;BME280;11144;43.030;25.108;2023-04-27T02:13:34;98977.56;;;10.71;100.00
21960;BME280;11144;43.030;25.108;2023-04-27T02:15:08;98975.06;;;10.68;100.00
21960;BME280;11144;43.030;25.108;2023-04-27T02:16:42;98969.78;;;10.68;100.00
21960;BME280;11144;43.030;25.108;2023-04-27T02:18:15;98980.59;;;10.62;100.00
21960;BME280;11144;43.030;25.108;2023-04-27T02:19:49;98972.78;;;10.59;100.00
21960;BME280;11144;43.030;25.108;2023-04-27T02:21:22;98975.44;;;10.59;100.00
21960;BME280;11144;43.030;25.108;2023-04-27T02:22:55;98976.31;;;10.60;100.00
21960;BME280;11144;43.030;25.108;2023-04-27T02:24:30;98972.78;;;10.59;100.00
21960;BME280;11144;43.030;25.108;2023-04-27T02:26:06;98972.91;;;10.56;100.00
21960;BME280;11144;43.030;25.108;2023-04-27T02:27:41;98974.78;;;10.54;100.00
21960;BME280;11144;43.030;25.108;2023-04-27T02:29:15;98984.53;;;10.52;100.00
21960;BME280;11144;43.030;25.108;2023-04-27T02:30:49;98973.13;;;10.52;100.00
21960;BME280;11144;43.030;25.108;2023-04-27T02:32:22;98974.97;;;10.50;100.00
21960;BME280;11144;43.030;25.108;2023-04-27T02:33:55;98975.81;;;10.50;100.00
21960;BME280;11144;43.030;25.108;2023-04-27T02:35:29;98973.38;;;10.46;100.00
21960;BME280;11144;43.030;25.108;2023-04-27T02:37:03;98972.44;;;10.47;100.00
21960;BME280;11144;43.030;25.108;2023-04-27T02:38:37;98980.38;;;10.47;100.00
21960;BME280;11144;43.030;25.108;2023-04-27T02:40:11;98970.78;;;10.44;100.00
21960;BME280;11144;43.030;25.108;2023-04-27T02:41:45;98975.41;;;10.39;100.00
21960;BME280;11144;43.030;25.108;2023-04-27T02:43:19;98976.31;;;10.38;100.00
21960;BME280;11144;43.030;25.108;2023-04-27T02:44:52;98983.19;;;10.42;100.00
21960;BME280;11144;43.030;25.108;2023-04-27T02:46:26;98977.13;;;10.40;100.00
21960;BME280;11144;43.030;25.108;2023-04-27T02:47:59;98974.53;;;10.38;100.00
21960;BME280;11144;43.030;25.108;2023-04-27T02:49:33;98978.03;;;10.39;100.00
21960;BME280;11144;43.030;25.108;2023-04-27T02:51:08;98982.47;;;10.38;100.00
21960;BME280;11144;43.030;25.108;2023-04-27T02:52:41;98976.38;;;10.36;100.00
21960;BME280;11144;43.030;25.108;2023-04-27T02:54:14;98980.75;;;10.38;100.00
21960;BME280;11144;43.030;25.108;2023-04-27T02:55:49;98992.31;;;10.35;100.00
21960;BME280;11144;43.030;25.108;2023-04-27T02:57:23;98987.03;;;10.35;100.00
21960;BME280;11144;43.030;25.108;2023-04-27T02:58:57;98990.50;;;10.35;100.00
21960;BME280;11144;43.030;25.108;2023-04-27T03:00:30;98999.31;;;10.36;100.00
21960;BME280;11144;43.030;25.108;2023-04-27T03:02:03;98993.03;;;10.38;100.00
21960;BME280;11144;43.030;25.108;2023-04-27T03:03:37;98989.41;;;10.41;100.00
21960;BME280;11144;43.030;25.108;2023-04-27T03:05:10;98997.31;;;10.41;100.00
21960;BME280;11144;43.030;25.108;2023-04-27T03:06:44;98989.47;;;10.39;100.00
21960;BME280;11144;43.030;25.108;2023-04-27T03:08:17;98995.50;;;10.43;100.00
21960;BME280;11144;43.030;25.108;2023-04-27T03:09:50;98994.63;;;10.43;100.00
21960;BME280;11144;43.030;25.108;2023-04-27T03:11:23;98998.03;;;10.46;100.00
21960;BME280;11144;43.030;25.108;2023-04-27T03:12:58;98997.44;;;10.38;100.00
21960;BME280;11144;43.030;25.108;2023-04-27T03:14:32;99002.88;;;10.35;100.00
21960;BME280;11144;43.030;25.108;2023-04-27T03:16:06;99006.41;;;10.34;100.00
21960;BME280;11144;43.030;25.108;2023-04-27T03:17:39;99001.88;;;10.38;100.00
21960;BME280;11144;43.030;25.108;2023-04-27T03:19:11;99001.84;;;10.39;100.00
21960;BME280;11144;43.030;25.108;2023-04-27T03:20:45;99007.78;;;10.44;100.00
21960;BME280;11144;43.030;25.108;2023-04-27T03:22:19;99008.84;;;10.40;100.00
21960;BME280;11144;43.030;25.108;2023-04-27T03:23:51;99020.44;;;10.36;100.00
21960;BME280;11144;43.030;25.108;2023-04-27T03:25:26;99014.22;;;10.37;100.00
21960;BME280;11144;43.030;25.108;2023-04-27T03:27:00;99016.00;;;10.36;100.00
21960;BME280;11144;43.030;25.108;2023-04-27T03:28:36;99023.88;;;10.38;100.00
21960;BME280;11144;43.030;25.108;2023-04-27T03:30:10;99023.22;;;10.33;100.00
21960;BME280;11144;43.030;25.108;2023-04-27T03:31:43;99029.41;;;10.32;100.00
21960;BME280;11144;43.030;25.108;2023-04-27T03:33:17;99031.25;;;10.30;100.00
21960;BME280;11144;43.030;25.108;2023-04-27T03:34:50;99031.50;;;10.24;100.00
21960;BME280;11144;43.030;25.108;2023-04-27T03:36:24;99038.63;;;10.22;100.00
21960;BME280;11144;43.030;25.108;2023-04-27T03:37:57;99033.44;;;10.19;100.00
21960;BME280;11144;43.030;25.108;2023-04-27T03:39:31;99037.03;;;10.18;100.00
21960;BME280;11144;43.030;25.108;2023-04-27T03:41:04;99030.25;;;10.11;100.00
21960;BME280;11144;43.030;25.108;2023-04-27T03:42:39;99035.97;;;9.99;100.00
21960;BME280;11144;43.030;25.108;2023-04-27T03:44:13;99032.53;;;9.97;100.00
21960;BME280;11144;43.030;25.108;2023-04-27T03:45:47;99029.94;;;9.95;100.00
21960;BME280;11144;43.030;25.108;2023-04-27T03:47:19;99032.00;;;9.87;100.00
21960;BME280;11144;43.030;25.108;2023-04-27T03:48:53;99041.75;;;9.87;100.00
21960;BME280;11144;43.030;25.108;2023-04-27T03:50:26;99031.38;;;9.81;100.00
21960;BME280;11144;43.030;25.108;2023-04-27T03:52:01;99033.22;;;9.79;100.00
21960;BME280;11144;43.030;25.108;2023-04-27T03:53:35;99033.25;;;9.77;100.00
21960;BME280;11144;43.030;25.108;2023-04-27T03:55:09;99024.56;;;9.75;100.00
21960;BME280;11144;43.030;25.108;2023-04-27T03:56:44;99036.00;;;9.76;100.00
21960;BME280;11144;43.030;25.108;2023-04-27T03:58:19;99043.66;;;9.82;100.00
21960;BME280;11144;43.030;25.108;2023-04-27T04:00:14;99045.28;;;9.86;100.00
21960;BME280;11144;43.030;25.108;2023-04-27T04:01:47;99050.44;;;9.89;100.00
21960;BME280;11144;43.030;25.108;2023-04-27T04:03:21;99048.72;;;9.88;100.00
21960;BME280;11144;43.030;25.108;2023-04-27T04:04:54;99045.94;;;9.92;100.00
21960;BME280;11144;43.030;25.108;2023-04-27T04:06:28;99051.06;;;9.95;100.00
21960;BME280;11144;43.030;25.108;2023-04-27T04:08:02;99048.38;;;9.97;100.00
21960;BME280;11144;43.030;25.108;2023-04-27T04:09:35;99055.25;;;10.01;100.00
21960;BME280;11144;43.030;25.108;2023-04-27T04:11:09;99051.72;;;10.02;100.00
21960;BME280;11144;43.030;25.108;2023-04-27T04:12:43;99054.31;;;10.03;100.00
21960;BME280;11144;43.030;25.108;2023-04-27T04:14:15;99055.13;;;10.04;100.00
21960;BME280;11144;43.030;25.108;2023-04-27T04:15:59;99057.84;;;10.02;100.00
21960;BME280;11144;43.030;25.108;2023-04-27T04:17:33;99064.00;;;10.03;100.00
21960;BME280;11144;43.030;25.108;2023-04-27T04:19:07;99056.78;;;10.08;100.00
21960;BME280;11144;43.030;25.108;2023-04-27T04:20:41;99053.34;;;10.06;100.00
21960;BME280;11144;43.030;25.108;2023-04-27T04:22:14;99065.41;;;10.13;100.00
21960;BME280;11144;43.030;25.108;2023-04-27T04:23:48;99065.25;;;10.16;100.00
21960;BME280;11144;43.030;25.108;2023-04-27T04:25:23;99067.00;;;10.17;100.00
21960;BME280;11144;43.030;25.108;2023-04-27T04:26:57;99065.25;;;10.16;100.00
21960;BME280;11144;43.030;25.108;2023-04-27T04:28:29;99069.72;;;10.15;100.00
21960;BME280;11144;43.030;25.108;2023-04-27T04:30:03;99069.81;;;10.12;100.00
21960;BME280;11144;43.030;25.108;2023-04-27T04:31:40;99075.97;;;10.13;100.00
21960;BME280;11144;43.030;25.108;2023-04-27T04:33:13;99073.28;;;10.14;100.00
21960;BME280;11144;43.030;25.108;2023-04-27T04:34:48;99063.66;;;10.12;100.00
21960;BME280;11144;43.030;25.108;2023-04-27T04:36:24;99077.47;;;10.20;100.00
21960;BME280;11144;43.030;25.108;2023-04-27T04:37:59;99082.59;;;10.23;100.00
21960;BME280;11144;43.030;25.108;2023-04-27T04:39:32;99080.91;;;10.22;100.00
21960;BME280;11144;43.030;25.108;2023-04-27T04:41:06;99086.28;;;10.19;100.00
21960;BME280;11144;43.030;25.108;2023-04-27T04:42:41;99076.09;;;10.10;100.00
21960;BME280;11144;43.030;25.108;2023-04-27T04:44:15;99082.53;;;10.01;100.00
21960;BME280;11144;43.030;25.108;2023-04-27T04:45:48;99090.63;;;9.97;100.00
21960;BME280;11144;43.030;25.108;2023-04-27T04:47:23;99093.50;;;9.91;100.00
21960;BME280;11144;43.030;25.108;2023-04-27T04:48:56;99091.19;;;9.82;100.00
21960;BME280;11144;43.030;25.108;2023-04-27T04:50:30;99094.88;;;9.78;100.00
21960;BME280;11144;43.030;25.108;2023-04-27T04:52:03;99093.16;;;9.77;100.00
21960;BME280;11144;43.030;25.108;2023-04-27T04:53:37;99095.06;;;9.72;100.00
21960;BME280;11144;43.030;25.108;2023-04-27T04:55:10;99097.81;;;9.70;100.00
21960;BME280;11144;43.030;25.108;2023-04-27T04:56:43;99096.94;;;9.70;100.00
21960;BME280;11144;43.030;25.108;2023-04-27T04:58:17;99102.09;;;9.73;100.00
21960;BME280;11144;43.030;25.108;2023-04-27T04:59:52;99100.50;;;9.69;100.00
21960;BME280;11144;43.030;25.108;2023-04-27T05:01:25;99104.78;;;9.71;100.00
21960;BME280;11144;43.030;25.108;2023-04-27T05:03:00;99105.78;;;9.69;100.00
21960;BME280;11144;43.030;25.108;2023-04-27T05:04:34;99107.69;;;9.64;100.00
21960;BME280;11144;43.030;25.108;2023-04-27T05:06:07;99104.25;;;9.62;100.00
21960;BME280;11144;43.030;25.108;2023-04-27T05:07:40;99114.78;;;9.63;100.00
21960;BME280;11144;43.030;25.108;2023-04-27T05:09:14;99108.50;;;9.66;100.00
21960;BME280;11144;43.030;25.108;2023-04-27T05:10:48;99123.63;;;9.61;100.00
21960;BME280;11144;43.030;25.108;2023-04-27T05:12:22;99119.72;;;9.48;100.00
21960;BME280;11144;43.030;25.108;2023-04-27T05:13:55;99119.13;;;9.40;100.00
21960;BME280;11144;43.030;25.108;2023-04-27T05:15:28;99116.84;;;9.29;100.00
21960;BME280;11144;43.030;25.108;2023-04-27T05:17:02;99122.19;;;9.28;100.00
21960;BME280;11144;43.030;25.108;2023-04-27T05:18:36;99125.56;;;9.31;100.00
21960;BME280;11144;43.030;25.108;2023-04-27T05:20:10;99114.97;;;9.33;100.00
21960;BME280;11144;43.030;25.108;2023-04-27T05:21:43;99119.31;;;9.34;100.00
21960;BME280;11144;43.030;25.108;2023-04-27T05:23:17;99123.94;;;9.27;100.00
21960;BME280;11144;43.030;25.108;2023-04-27T05:24:50;99122.34;;;9.23;100.00
21960;BME280;11144;43.030;25.108;2023-04-27T05:26:23;99125.13;;;9.19;100.00
21960;BME280;11144;43.030;25.108;2023-04-27T05:27:57;99129.53;;;9.18;100.00
21960;BME280;11144;43.030;25.108;2023-04-27T05:29:30;99123.31;;;9.21;100.00
21960;BME280;11144;43.030;25.108;2023-04-27T05:31:04;99128.44;;;9.24;100.00
21960;BME280;11144;43.030;25.108;2023-04-27T05:32:37;99135.38;;;9.28;100.00
21960;BME280;11144;43.030;25.108;2023-04-27T05:34:11;99128.16;;;9.33;100.00
21960;BME280;11144;43.030;25.108;2023-04-27T05:35:45;99128.06;;;9.36;100.00
21960;BME280;11144;43.030;25.108;2023-04-27T05:37:18;99129.69;;;9.40;100.00
21960;BME280;11144;43.030;25.108;2023-04-27T05:38:51;99128.56;;;9.47;100.00
21960;BME280;11144;43.030;25.108;2023-04-27T05:40:24;99125.69;;;9.53;100.00
21960;BME280;11144;43.030;25.108;2023-04-27T05:41:58;99123.03;;;9.53;100.00
21960;BME280;11144;43.030;25.108;2023-04-27T05:43:31;99126.50;;;9.55;100.00
21960;BME280;11144;43.030;25.108;2023-04-27T05:45:07;99127.28;;;9.57;100.00
21960;BME280;11144;43.030;25.108;2023-04-27T05:46:41;99129.84;;;9.60;100.00
21960;BME280;11144;43.030;25.108;2023-04-27T05:48:14;99123.63;;;9.61;100.00
21960;BME280;11144;43.030;25.108;2023-04-27T05:49:51;99128.91;;;9.61;100.00
21960;BME280;11144;43.030;25.108;2023-04-27T05:51:24;99133.19;;;9.65;100.00
21960;BME280;11144;43.030;25.108;2023-04-27T05:52:57;99126.66;;;9.75;100.00
21960;BME280;11144;43.030;25.108;2023-04-27T05:54:31;99131.13;;;9.73;100.00
21960;BME280;11144;43.030;25.108;2023-04-27T05:56:05;99140.63;;;9.78;100.00
21960;BME280;11144;43.030;25.108;2023-04-27T05:57:38;99131.81;;;9.78;100.00
21960;BME280;11144;43.030;25.108;2023-04-27T05:59:12;99138.72;;;9.82;100.00
21960;BME280;11144;43.030;25.108;2023-04-27T06:00:47;99137.00;;;9.81;100.00
21960;BME280;11144;43.030;25.108;2023-04-27T06:02:21;99140.44;;;9.83;100.00
21960;BME280;11144;43.030;25.108;2023-04-27T06:03:55;99143.69;;;9.91;100.00
21960;BME280;11144;43.030;25.108;2023-04-27T06:05:34;99143.44;;;9.97;100.00
21960;BME280;11144;43.030;25.108;2023-04-27T06:07:07;99145.88;;;10.03;100.00
21960;BME280;11144;43.030;25.108;2023-04-27T06:08:41;99146.81;;;10.02;100.00
21960;BME280;11144;43.030;25.108;2023-04-27T06:10:14;99141.63;;;9.99;100.00
21960;BME280;11144;43.030;25.108;2023-04-27T06:11:47;99147.84;;;9.98;100.00
21960;BME280;11144;43.030;25.108;2023-04-27T06:13:21;99142.56;;;9.98;100.00
21960;BME280;11144;43.030;25.108;2023-04-27T06:14:54;99145.94;;;10.01;100.00
21960;BME280;11144;43.030;25.108;2023-04-27T06:16:28;99150.34;;;10.01;100.00
21960;BME280;11144;43.030;25.108;2023-04-27T06:18:01;99151.94;;;10.05;100.00
21960;BME280;11144;43.030;25.108;2023-04-27T06:19:35;99149.06;;;10.12;100.00
21960;BME280;11144;43.030;25.108;2023-04-27T06:21:09;99151.66;;;10.14;100.00
21960;BME280;11144;43.030;25.108;2023-04-27T06:22:43;99149.13;;;10.11;100.00
21960;BME280;11144;43.030;25.108;2023-04-27T06:24:17;99150.91;;;10.10;100.00
21960;BME280;11144;43.030;25.108;2023-04-27T06:25:50;99146.38;;;10.14;100.00
21960;BME280;11144;43.030;25.108;2023-04-27T06:27:24;99147.34;;;10.11;100.00
21960;BME280;11144;43.030;25.108;2023-04-27T06:28:57;99151.78;;;10.11;100.00
21960;BME280;11144;43.030;25.108;2023-04-27T06:30:30;99146.47;;;10.11;100.00
21960;BME280;11144;43.030;25.108;2023-04-27T06:32:04;99146.47;;;10.11;100.00
21960;BME280;11144;43.030;25.108;2023-04-27T06:33:38;99147.41;;;10.10;100.00
21960;BME280;11144;43.030;25.108;2023-04-27T06:35:11;99147.47;;;10.08;100.00
21960;BME280;11144;43.030;25.108;2023-04-27T06:36:46;99146.59;;;10.08;100.00
21960;BME280;11144;43.030;25.108;2023-04-27T06:38:19;99154.59;;;10.05;100.00
21960;BME280;11144;43.030;25.108;2023-04-27T06:39:52;99153.16;;;9.96;100.00
21960;BME280;11144;43.030;25.108;2023-04-27T06:41:25;99154.34;;;9.88;100.00
21960;BME280;11144;43.030;25.108;2023-04-27T06:42:59;99158.88;;;9.84;100.00
21960;BME280;11144;43.030;25.108;2023-04-27T06:44:32;99154.34;;;9.88;100.00
21960;BME280;11144;43.030;25.108;2023-04-27T06:46:05;99155.84;;;9.95;100.00
21960;BME280;11144;43.030;25.108;2023-04-27T06:47:38;99157.38;;;10.02;100.00
21960;BME280;11144;43.030;25.108;2023-04-27T06:49:12;99150.16;;;10.07;100.00
21960;BME280;11144;43.030;25.108;2023-04-27T06:50:46;99155.22;;;10.13;100.00
21960;BME280;11144;43.030;25.108;2023-04-27T06:52:21;99164.47;;;10.24;100.00
21960;BME280;11144;43.030;25.108;2023-04-27T06:53:54;99160.56;;;10.34;100.00
21960;BME280;11144;43.030;25.108;2023-04-27T06:55:28;99159.59;;;10.37;100.00
21960;BME280;11144;43.030;25.108;2023-04-27T06:57:01;99164.75;;;10.40;100.00
21960;BME280;11144;43.030;25.108;2023-04-27T06:58:34;99163.50;;;10.50;100.00
21960;BME280;11144;43.030;25.108;2023-04-27T07:00:09;99158.06;;;10.53;100.00
21960;BME280;11144;43.030;25.108;2023-04-27T07:01:44;99152.50;;;10.61;100.00
21960;BME280;11144;43.030;25.108;2023-04-27T07:03:17;99155.97;;;10.63;100.00
21960;BME280;11144;43.030;25.108;2023-04-27T07:04:52;99151.19;;;10.72;100.00
21960;BME280;11144;43.030;25.108;2023-04-27T07:06:25;99155.97;;;10.84;100.00
21960;BME280;11144;43.030;25.108;2023-04-27T07:08:01;99166.06;;;10.96;100.00
21960;BME280;11144;43.030;25.108;2023-04-27T07:09:39;99162.91;;;11.08;100.00
21960;BME280;11144;43.030;25.108;2023-04-27T07:11:13;99159.50;;;11.26;100.00
21960;BME280;11144;43.030;25.108;2023-04-27T07:12:47;99150.34;;;11.35;100.00
21960;BME280;11144;43.030;25.108;2023-04-27T07:14:21;99160.47;;;11.45;100.00
21960;BME280;11144;43.030;25.108;2023-04-27T07:15:54;99158.38;;;11.53;100.00
21960;BME280;11144;43.030;25.108;2023-04-27T07:17:29;99155.44;;;11.39;100.00
21960;BME280;11144;43.030;25.108;2023-04-27T07:19:02;99152.28;;;11.31;100.00
21960;BME280;11144;43.030;25.108;2023-04-27T07:20:36;99153.09;;;11.32;100.00
21960;BME280;11144;43.030;25.108;2023-04-27T07:22:09;99156.44;;;11.37;100.00
21960;BME280;11144;43.030;25.108;2023-04-27T07:23:44;99156.69;;;11.31;100.00
21960;BME280;11144;43.030;25.108;2023-04-27T07:25:18;99161.38;;;11.24;100.00
21960;BME280;11144;43.030;25.108;2023-04-27T07:26:51;99148.50;;;11.15;100.00
21960;BME280;11144;43.030;25.108;2023-04-27T07:28:27;99159.22;;;11.12;100.00
21960;BME280;11144;43.030;25.108;2023-04-27T07:30:00;99159.63;;;11.23;100.00
21960;BME280;11144;43.030;25.108;2023-04-27T07:31:33;99154.03;;;11.31;100.00
21960;BME280;11144;43.030;25.108;2023-04-27T07:33:07;99160.75;;;11.39;100.00
21960;BME280;11144;43.030;25.108;2023-04-27T07:34:40;99153.84;;;11.35;100.00
21960;BME280;11144;43.030;25.108;2023-04-27T07:36:24;99140.09;;;11.27;100.00
21960;BME280;11144;43.030;25.108;2023-04-27T07:37:58;99157.69;;;11.28;100.00
21960;BME280;11144;43.030;25.108;2023-04-27T07:39:34;99162.72;;;11.34;100.00
21960;BME280;11144;43.030;25.108;2023-04-27T07:41:07;99145.00;;;11.36;100.00
21960;BME280;11144;43.030;25.108;2023-04-27T07:42:41;99153.59;;;11.41;100.00
21960;BME280;11144;43.030;25.108;2023-04-27T07:44:14;99156.91;;;11.46;100.00
21960;BME280;11144;43.030;25.108;2023-04-27T07:45:47;99149.88;;;11.45;100.00
21960;BME280;11144;43.030;25.108;2023-04-27T07:47:21;99144.09;;;11.57;100.00
21960;BME280;11144;43.030;25.108;2023-04-27T07:48:54;99153.09;;;11.53;100.00
21960;BME280;11144;43.030;25.108;2023-04-27T07:50:30;99152.34;;;11.50;100.00
21960;BME280;11144;43.030;25.108;2023-04-27T07:52:04;99151.22;;;11.55;100.00
21960;BME280;11144;43.030;25.108;2023-04-27T07:53:38;99152.47;;;11.68;100.00
21960;BME280;11144;43.030;25.108;2023-04-27T07:55:12;99149.53;;;11.74;100.00
21960;BME280;11144;43.030;25.108;2023-04-27T07:56:45;99149.94;;;11.85;100.00
21960;BME280;11144;43.030;25.108;2023-04-27T07:58:19;99151.13;;;11.78;100.00
21960;BME280;11144;43.030;25.108;2023-04-27T07:59:52;99146.88;;;11.74;100.00
21960;BME280;11144;43.030;25.108;2023-04-27T08:01:25;99143.03;;;11.81;100.00
21960;BME280;11144;43.030;25.108;2023-04-27T08:02:59;99144.13;;;11.97;100.00
21960;BME280;11144;43.030;25.108;2023-04-27T08:04:33;99152.28;;;12.11;100.00
21960;BME280;11144;43.030;25.108;2023-04-27T08:06:07;99151.59;;;12.26;100.00